sensor_id;sensor_type;location;lat;lon;timestamp;P1;durP1;ratioP1;P2;durP2;ratioP2
74064;SDS011;62421;51.412;5.432;2022-12-10T00:01:48;60.47;;;23.87;;
74064;SDS011;62421;51.412;5.432;2022-12-10T00:04:15;60.70;;;24.13;;
74064;SDS011;62421;51.412;5.432;2022-12-10T00:06:41;62.70;;;24.00;;
74064;SDS011;62421;51.412;5.432;2022-12-10T00:09:12;60.53;;;22.98;;
74064;SDS011;62421;51.412;5.432;2022-12-10T00:11:39;65.20;;;25.80;;
74064;SDS011;62421;51.412;5.432;2022-12-10T00:14:05;62.70;;;24.10;;
74064;SDS011;62421;51.412;5.432;2022-12-10T00:16:32;70.15;;;26.25;;
74064;SDS011;62421;51.412;5.432;2022-12-10T00:18:58;65.72;;;25.83;;
74064;SDS011;62421;51.412;5.432;2022-12-10T00:21:26;63.97;;;25.37;;
74064;SDS011;62421;51.412;5.432;2022-12-10T00:23:53;68.22;;;23.38;;
74064;SDS011;62421;51.412;5.432;2022-12-10T00:26:21;67.00;;;25.20;;
74064;SDS011;62421;51.412;5.432;2022-12-10T00:28:48;64.07;;;24.30;;
74064;SDS011;62421;51.412;5.432;2022-12-10T00:31:15;66.78;;;25.02;;
74064;SDS011;62421;51.412;5.432;2022-12-10T00:33:45;62.80;;;23.08;;
74064;SDS011;62421;51.412;5.432;2022-12-10T00:36:13;64.07;;;25.52;;
74064;SDS011;62421;51.412;5.432;2022-12-10T00:38:46;61.92;;;25.27;;
74064;SDS011;62421;51.412;5.432;2022-12-10T00:41:13;58.67;;;22.88;;
74064;SDS011;62421;51.412;5.432;2022-12-10T00:43:39;59.00;;;25.10;;
74064;SDS011;62421;51.412;5.432;2022-12-10T00:46:05;68.10;;;25.40;;
74064;SDS011;62421;51.412;5.432;2022-12-10T00:48:30;69.77;;;25.10;;
74064;SDS011;62421;51.412;5.432;2022-12-10T00:51:03;57.17;;;25.88;;
74064;SDS011;62421;51.412;5.432;2022-12-10T00:53:34;70.72;;;26.73;;
74064;SDS011;62421;51.412;5.432;2022-12-10T00:56:00;61.17;;;25.67;;
74064;SDS011;62421;51.412;5.432;2022-12-10T00:58:27;62.55;;;24.25;;
74064;SDS011;62421;51.412;5.432;2022-12-10T01:00:54;63.05;;;23.25;;
74064;SDS011;62421;51.412;5.432;2022-12-10T01:03:19;67.50;;;25.58;;
74064;SDS011;62421;51.412;5.432;2022-12-10T01:05:45;62.87;;;24.33;;
74064;SDS011;62421;51.412;5.432;2022-12-10T01:08:10;64.50;;;27.83;;
74064;SDS011;62421;51.412;5.432;2022-12-10T01:10:36;63.55;;;26.08;;
74064;SDS011;62421;51.412;5.432;2022-12-10T01:13:02;61.77;;;23.73;;
74064;SDS011;62421;51.412;5.432;2022-12-10T01:15:29;64.75;;;24.17;;
74064;SDS011;62421;51.412;5.432;2022-12-10T01:17:54;65.00;;;24.73;;
74064;SDS011;62421;51.412;5.432;2022-12-10T01:20:19;64.73;;;24.23;;
74064;SDS011;62421;51.412;5.432;2022-12-10T01:22:45;64.83;;;24.77;;
74064;SDS011;62421;51.412;5.432;2022-12-10T01:25:10;66.53;;;26.23;;
74064;SDS011;62421;51.412;5.432;2022-12-10T01:27:35;67.85;;;24.90;;
74064;SDS011;62421;51.412;5.432;2022-12-10T01:30:01;59.17;;;22.23;;
74064;SDS011;62421;51.412;5.432;2022-12-10T01:32:26;66.80;;;24.02;;
74064;SDS011;62421;51.412;5.432;2022-12-10T01:34:51;66.73;;;24.50;;
74064;SDS011;62421;51.412;5.432;2022-12-10T01:37:17;72.63;;;27.50;;
74064;SDS011;62421;51.412;5.432;2022-12-10T01:39:42;62.80;;;23.40;;
74064;SDS011;62421;51.412;5.432;2022-12-10T01:42:11;65.83;;;24.90;;
74064;SDS011;62421;51.412;5.432;2022-12-10T01:47:06;67.40;;;26.15;;
74064;SDS011;62421;51.412;5.432;2022-12-10T01:49:37;70.38;;;25.30;;
74064;SDS011;62421;51.412;5.432;2022-12-10T01:52:06;66.45;;;25.88;;
74064;SDS011;62421;51.412;5.432;2022-12-10T01:54:35;73.03;;;24.63;;
74064;SDS011;62421;51.412;5.432;2022-12-10T01:57:21;71.47;;;27.48;;
74064;SDS011;62421;51.412;5.432;2022-12-10T01:59:50;71.70;;;26.02;;
74064;SDS011;62421;51.412;5.432;2022-12-10T02:02:30;77.27;;;25.20;;
74064;SDS011;62421;51.412;5.432;2022-12-10T02:13:35;66.45;;;25.55;;
74064;SDS011;62421;51.412;5.432;2022-12-10T02:21:40;71.83;;;25.30;;
74064;SDS011;62421;51.412;5.432;2022-12-10T02:24:10;66.65;;;25.85;;
74064;SDS011;62421;51.412;5.432;2022-12-10T02:29:39;76.57;;;29.83;;
74064;SDS011;62421;51.412;5.432;2022-12-10T02:32:12;63.95;;;22.58;;
74064;SDS011;62421;51.412;5.432;2022-12-10T02:34:42;65.80;;;25.63;;
74064;SDS011;62421;51.412;5.432;2022-12-10T02:37:19;73.53;;;24.58;;
74064;SDS011;62421;51.412;5.432;2022-12-10T02:39:49;56.80;;;21.63;;
74064;SDS011;62421;51.412;5.432;2022-12-10T02:42:18;64.50;;;23.92;;
74064;SDS011;62421;51.412;5.432;2022-12-10T02:44:46;66.10;;;23.58;;
74064;SDS011;62421;51.412;5.432;2022-12-10T02:47:13;64.70;;;22.48;;
74064;SDS011;62421;51.412;5.432;2022-12-10T02:49:41;67.00;;;25.52;;
74064;SDS011;62421;51.412;5.432;2022-12-10T02:52:09;63.90;;;22.70;;
74064;SDS011;62421;51.412;5.432;2022-12-10T02:57:11;61.03;;;21.93;;
74064;SDS011;62421;51.412;5.432;2022-12-10T03:05:12;65.75;;;23.85;;
74064;SDS011;62421;51.412;5.432;2022-12-10T03:07:47;63.33;;;22.15;;
74064;SDS011;62421;51.412;5.432;2022-12-10T03:13:06;70.65;;;25.02;;
74064;SDS011;62421;51.412;5.432;2022-12-10T03:15:38;65.67;;;22.23;;
74064;SDS011;62421;51.412;5.432;2022-12-10T03:18:06;63.72;;;23.10;;
74064;SDS011;62421;51.412;5.432;2022-12-10T03:20:34;67.47;;;24.45;;
74064;SDS011;62421;51.412;5.432;2022-12-10T03:23:04;66.93;;;24.97;;
74064;SDS011;62421;51.412;5.432;2022-12-10T03:25:34;67.70;;;24.65;;
74064;SDS011;62421;51.412;5.432;2022-12-10T03:28:02;74.05;;;23.70;;
74064;SDS011;62421;51.412;5.432;2022-12-10T03:30:29;64.30;;;22.55;;
74064;SDS011;62421;51.412;5.432;2022-12-10T03:32:57;69.20;;;23.40;;
74064;SDS011;62421;51.412;5.432;2022-12-10T03:35:23;69.55;;;23.23;;
74064;SDS011;62421;51.412;5.432;2022-12-10T03:37:49;65.60;;;23.83;;
74064;SDS011;62421;51.412;5.432;2022-12-10T03:40:16;67.77;;;23.43;;
74064;SDS011;62421;51.412;5.432;2022-12-10T03:42:44;70.55;;;23.88;;
74064;SDS011;62421;51.412;5.432;2022-12-10T03:45:10;62.80;;;21.37;;
74064;SDS011;62421;51.412;5.432;2022-12-10T03:47:35;67.83;;;23.10;;
74064;SDS011;62421;51.412;5.432;2022-12-10T03:50:01;65.33;;;23.33;;
74064;SDS011;62421;51.412;5.432;2022-12-10T03:52:26;69.55;;;23.92;;
74064;SDS011;62421;51.412;5.432;2022-12-10T03:54:52;72.47;;;23.93;;
74064;SDS011;62421;51.412;5.432;2022-12-10T03:57:17;74.20;;;25.03;;
74064;SDS011;62421;51.412;5.432;2022-12-10T03:59:43;74.17;;;24.10;;
74064;SDS011;62421;51.412;5.432;2022-12-10T04:02:08;67.50;;;24.07;;
74064;SDS011;62421;51.412;5.432;2022-12-10T04:04:33;69.57;;;25.03;;
74064;SDS011;62421;51.412;5.432;2022-12-10T04:06:58;71.73;;;25.33;;
74064;SDS011;62421;51.412;5.432;2022-12-10T04:09:24;66.93;;;23.17;;
74064;SDS011;62421;51.412;5.432;2022-12-10T04:11:49;61.70;;;22.70;;
74064;SDS011;62421;51.412;5.432;2022-12-10T04:14:14;69.03;;;23.48;;
74064;SDS011;62421;51.412;5.432;2022-12-10T04:16:59;70.15;;;24.27;;
74064;SDS011;62421;51.412;5.432;2022-12-10T04:19:24;67.07;;;22.08;;
74064;SDS011;62421;51.412;5.432;2022-12-10T04:21:50;68.50;;;23.10;;
74064;SDS011;62421;51.412;5.432;2022-12-10T04:24:34;73.63;;;24.17;;
74064;SDS011;62421;51.412;5.432;2022-12-10T04:27:21;75.18;;;23.02;;
74064;SDS011;62421;51.412;5.432;2022-12-10T04:29:49;69.05;;;24.35;;
74064;SDS011;62421;51.412;5.432;2022-12-10T04:32:15;71.50;;;24.05;;
74064;SDS011;62421;51.412;5.432;2022-12-10T04:34:40;69.97;;;24.17;;
74064;SDS011;62421;51.412;5.432;2022-12-10T04:37:06;68.00;;;22.67;;
74064;SDS011;62421;51.412;5.432;2022-12-10T04:39:31;62.23;;;22.10;;
74064;SDS011;62421;51.412;5.432;2022-12-10T04:41:57;65.17;;;21.60;;
74064;SDS011;62421;51.412;5.432;2022-12-10T04:44:23;64.68;;;22.73;;
74064;SDS011;62421;51.412;5.432;2022-12-10T04:46:49;65.40;;;22.70;;
74064;SDS011;62421;51.412;5.432;2022-12-10T04:49:14;67.73;;;22.47;;
74064;SDS011;62421;51.412;5.432;2022-12-10T04:51:40;63.70;;;22.25;;
74064;SDS011;62421;51.412;5.432;2022-12-10T04:54:06;68.00;;;22.20;;
74064;SDS011;62421;51.412;5.432;2022-12-10T04:56:32;66.25;;;22.00;;
74064;SDS011;62421;51.412;5.432;2022-12-10T04:58:58;67.40;;;24.35;;
74064;SDS011;62421;51.412;5.432;2022-12-10T05:01:24;69.67;;;23.97;;
74064;SDS011;62421;51.412;5.432;2022-12-10T05:03:50;69.00;;;23.73;;
74064;SDS011;62421;51.412;5.432;2022-12-10T05:06:16;65.37;;;24.73;;
74064;SDS011;62421;51.412;5.432;2022-12-10T05:08:42;68.80;;;26.50;;
74064;SDS011;62421;51.412;5.432;2022-12-10T05:11:12;68.50;;;22.83;;
74064;SDS011;62421;51.412;5.432;2022-12-10T05:13:39;66.95;;;21.92;;
74064;SDS011;62421;51.412;5.432;2022-12-10T05:16:05;63.08;;;21.77;;
74064;SDS011;62421;51.412;5.432;2022-12-10T05:18:32;70.90;;;22.80;;
74064;SDS011;62421;51.412;5.432;2022-12-10T05:20:58;65.50;;;23.17;;
74064;SDS011;62421;51.412;5.432;2022-12-10T05:23:25;70.63;;;22.65;;
74064;SDS011;62421;51.412;5.432;2022-12-10T05:28:51;80.13;;;23.55;;
74064;SDS011;62421;51.412;5.432;2022-12-10T05:31:19;70.72;;;23.33;;
74064;SDS011;62421;51.412;5.432;2022-12-10T05:33:46;79.47;;;26.83;;
74064;SDS011;62421;51.412;5.432;2022-12-10T05:36:14;74.53;;;24.38;;
74064;SDS011;62421;51.412;5.432;2022-12-10T05:38:40;76.45;;;25.40;;
74064;SDS011;62421;51.412;5.432;2022-12-10T05:41:13;79.73;;;25.50;;
74064;SDS011;62421;51.412;5.432;2022-12-10T05:43:40;64.25;;;22.80;;
74064;SDS011;62421;51.412;5.432;2022-12-10T05:46:09;70.47;;;23.40;;
74064;SDS011;62421;51.412;5.432;2022-12-10T05:48:36;66.57;;;23.40;;
74064;SDS011;62421;51.412;5.432;2022-12-10T05:51:06;66.22;;;23.70;;
74064;SDS011;62421;51.412;5.432;2022-12-10T05:53:33;72.38;;;22.38;;
74064;SDS011;62421;51.412;5.432;2022-12-10T05:55:59;70.80;;;22.23;;
74064;SDS011;62421;51.412;5.432;2022-12-10T05:58:26;68.85;;;22.65;;
74064;SDS011;62421;51.412;5.432;2022-12-10T06:00:53;83.15;;;26.55;;
74064;SDS011;62421;51.412;5.432;2022-12-10T06:03:19;73.07;;;24.80;;
74064;SDS011;62421;51.412;5.432;2022-12-10T06:05:44;69.70;;;23.90;;
74064;SDS011;62421;51.412;5.432;2022-12-10T06:08:10;68.53;;;22.80;;
74064;SDS011;62421;51.412;5.432;2022-12-10T06:10:35;76.07;;;25.23;;
74064;SDS011;62421;51.412;5.432;2022-12-10T06:13:01;72.55;;;24.83;;
74064;SDS011;62421;51.412;5.432;2022-12-10T06:15:28;83.25;;;24.73;;
74064;SDS011;62421;51.412;5.432;2022-12-10T06:17:54;78.93;;;27.03;;
74064;SDS011;62421;51.412;5.432;2022-12-10T06:20:20;73.25;;;24.50;;
74064;SDS011;62421;51.412;5.432;2022-12-10T06:22:46;80.60;;;26.17;;
74064;SDS011;62421;51.412;5.432;2022-12-10T06:25:11;76.23;;;24.43;;
74064;SDS011;62421;51.412;5.432;2022-12-10T06:27:36;76.97;;;26.10;;
74064;SDS011;62421;51.412;5.432;2022-12-10T06:30:02;75.33;;;25.77;;
74064;SDS011;62421;51.412;5.432;2022-12-10T06:32:27;78.60;;;25.00;;
74064;SDS011;62421;51.412;5.432;2022-12-10T06:34:53;68.60;;;23.57;;
74064;SDS011;62421;51.412;5.432;2022-12-10T06:37:18;79.93;;;24.70;;
74064;SDS011;62421;51.412;5.432;2022-12-10T06:39:44;78.43;;;25.27;;
74064;SDS011;62421;51.412;5.432;2022-12-10T06:42:09;75.57;;;24.55;;
74064;SDS011;62421;51.412;5.432;2022-12-10T06:44:34;69.50;;;23.47;;
74064;SDS011;62421;51.412;5.432;2022-12-10T06:47:00;66.73;;;24.03;;
74064;SDS011;62421;51.412;5.432;2022-12-10T06:49:25;68.53;;;23.30;;
74064;SDS011;62421;51.412;5.432;2022-12-10T06:51:50;72.57;;;23.67;;
74064;SDS011;62421;51.412;5.432;2022-12-10T06:54:16;68.40;;;24.43;;
74064;SDS011;62421;51.412;5.432;2022-12-10T06:56:41;76.93;;;23.60;;
74064;SDS011;62421;51.412;5.432;2022-12-10T06:59:07;74.77;;;23.33;;
74064;SDS011;62421;51.412;5.432;2022-12-10T07:01:32;69.70;;;22.50;;
74064;SDS011;62421;51.412;5.432;2022-12-10T07:03:58;61.00;;;20.20;;
74064;SDS011;62421;51.412;5.432;2022-12-10T07:06:24;64.50;;;20.60;;
74064;SDS011;62421;51.412;5.432;2022-12-10T07:08:51;66.20;;;21.50;;
74064;SDS011;62421;51.412;5.432;2022-12-10T07:11:18;83.93;;;24.47;;
74064;SDS011;62421;51.412;5.432;2022-12-10T07:13:45;64.25;;;21.85;;
74064;SDS011;62421;51.412;5.432;2022-12-10T07:16:14;71.53;;;21.83;;
74064;SDS011;62421;51.412;5.432;2022-12-10T07:18:44;66.43;;;21.90;;
74064;SDS011;62421;51.412;5.432;2022-12-10T07:21:14;68.10;;;20.38;;
74064;SDS011;62421;51.412;5.432;2022-12-10T07:23:40;69.53;;;21.43;;
74064;SDS011;62421;51.412;5.432;2022-12-10T07:26:06;71.63;;;22.63;;
74064;SDS011;62421;51.412;5.432;2022-12-10T07:28:31;67.72;;;22.08;;
74064;SDS011;62421;51.412;5.432;2022-12-10T07:31:04;72.15;;;22.70;;
74064;SDS011;62421;51.412;5.432;2022-12-10T07:33:31;77.15;;;23.45;;
74064;SDS011;62421;51.412;5.432;2022-12-10T07:35:57;78.18;;;24.80;;
74064;SDS011;62421;51.412;5.432;2022-12-10T07:38:23;80.00;;;23.17;;
74064;SDS011;62421;51.412;5.432;2022-12-10T07:40:49;79.15;;;23.98;;
74064;SDS011;62421;51.412;5.432;2022-12-10T07:43:15;77.72;;;23.77;;
74064;SDS011;62421;51.412;5.432;2022-12-10T07:45:41;74.40;;;24.52;;
74064;SDS011;62421;51.412;5.432;2022-12-10T07:48:06;72.70;;;23.60;;
74064;SDS011;62421;51.412;5.432;2022-12-10T07:50:32;80.00;;;24.17;;
74064;SDS011;62421;51.412;5.432;2022-12-10T07:52:57;81.40;;;24.33;;
74064;SDS011;62421;51.412;5.432;2022-12-10T07:55:23;81.70;;;23.40;;
74064;SDS011;62421;51.412;5.432;2022-12-10T07:57:48;88.57;;;27.23;;
74064;SDS011;62421;51.412;5.432;2022-12-10T08:00:13;86.70;;;25.83;;
74064;SDS011;62421;51.412;5.432;2022-12-10T08:02:39;80.17;;;24.80;;
74064;SDS011;62421;51.412;5.432;2022-12-10T08:05:04;87.57;;;23.67;;
74064;SDS011;62421;51.412;5.432;2022-12-10T08:07:30;77.38;;;25.30;;
74064;SDS011;62421;51.412;5.432;2022-12-10T08:09:55;84.23;;;25.40;;
74064;SDS011;62421;51.412;5.432;2022-12-10T08:12:21;78.83;;;23.87;;
74064;SDS011;62421;51.412;5.432;2022-12-10T08:14:46;79.73;;;22.63;;
74064;SDS011;62421;51.412;5.432;2022-12-10T08:17:11;84.00;;;24.10;;
74064;SDS011;62421;51.412;5.432;2022-12-10T08:19:36;88.00;;;24.97;;
74064;SDS011;62421;51.412;5.432;2022-12-10T08:22:02;82.60;;;24.47;;
74064;SDS011;62421;51.412;5.432;2022-12-10T08:24:27;76.63;;;21.57;;
74064;SDS011;62421;51.412;5.432;2022-12-10T08:26:52;80.97;;;24.43;;
74064;SDS011;62421;51.412;5.432;2022-12-10T08:29:18;75.93;;;23.13;;
74064;SDS011;62421;51.412;5.432;2022-12-10T08:31:43;83.88;;;24.38;;
74064;SDS011;62421;51.412;5.432;2022-12-10T08:34:12;80.43;;;23.35;;
74064;SDS011;62421;51.412;5.432;2022-12-10T08:36:39;82.07;;;24.40;;
74064;SDS011;62421;51.412;5.432;2022-12-10T08:39:04;83.07;;;24.97;;
74064;SDS011;62421;51.412;5.432;2022-12-10T08:41:29;84.37;;;23.67;;
74064;SDS011;62421;51.412;5.432;2022-12-10T08:43:55;86.15;;;24.30;;
74064;SDS011;62421;51.412;5.432;2022-12-10T08:46:20;77.40;;;23.70;;
74064;SDS011;62421;51.412;5.432;2022-12-10T08:48:46;84.65;;;25.67;;
74064;SDS011;62421;51.412;5.432;2022-12-10T08:51:14;90.47;;;23.70;;
74064;SDS011;62421;51.412;5.432;2022-12-10T08:53:40;88.40;;;23.47;;
74064;SDS011;62421;51.412;5.432;2022-12-10T08:56:06;79.30;;;22.40;;
74064;SDS011;62421;51.412;5.432;2022-12-10T08:58:32;82.13;;;23.15;;
74064;SDS011;62421;51.412;5.432;2022-12-10T09:00:57;84.27;;;23.43;;
74064;SDS011;62421;51.412;5.432;2022-12-10T09:03:23;89.78;;;25.88;;
74064;SDS011;62421;51.412;5.432;2022-12-10T09:05:49;78.40;;;23.77;;
74064;SDS011;62421;51.412;5.432;2022-12-10T09:08:14;81.67;;;23.80;;
74064;SDS011;62421;51.412;5.432;2022-12-10T09:10:40;86.60;;;25.07;;
74064;SDS011;62421;51.412;5.432;2022-12-10T09:13:05;76.90;;;23.53;;
74064;SDS011;62421;51.412;5.432;2022-12-10T09:15:31;82.50;;;23.75;;
74064;SDS011;62421;51.412;5.432;2022-12-10T09:17:56;86.80;;;25.10;;
74064;SDS011;62421;51.412;5.432;2022-12-10T09:20:22;82.38;;;22.77;;
74064;SDS011;62421;51.412;5.432;2022-12-10T09:22:48;89.37;;;25.50;;
74064;SDS011;62421;51.412;5.432;2022-12-10T09:25:13;95.77;;;25.77;;
74064;SDS011;62421;51.412;5.432;2022-12-10T09:27:42;80.20;;;24.85;;
74064;SDS011;62421;51.412;5.432;2022-12-10T09:30:08;96.38;;;25.63;;
74064;SDS011;62421;51.412;5.432;2022-12-10T09:32:34;85.38;;;21.98;;
74064;SDS011;62421;51.412;5.432;2022-12-10T09:34:59;89.70;;;24.57;;
74064;SDS011;62421;51.412;5.432;2022-12-10T09:37:24;83.00;;;22.27;;
74064;SDS011;62421;51.412;5.432;2022-12-10T09:39:50;81.37;;;22.87;;
74064;SDS011;62421;51.412;5.432;2022-12-10T09:48:01;78.45;;;21.50;;
74064;SDS011;62421;51.412;5.432;2022-12-10T09:50:36;87.07;;;26.73;;
74064;SDS011;62421;51.412;5.432;2022-12-10T09:53:14;83.15;;;22.40;;
74064;SDS011;62421;51.412;5.432;2022-12-10T09:55:44;79.50;;;23.30;;
74064;SDS011;62421;51.412;5.432;2022-12-10T09:58:33;80.53;;;23.13;;
74064;SDS011;62421;51.412;5.432;2022-12-10T10:01:00;80.00;;;22.57;;
74064;SDS011;62421;51.412;5.432;2022-12-10T10:03:31;78.22;;;22.35;;
74064;SDS011;62421;51.412;5.432;2022-12-10T10:06:01;82.97;;;23.83;;
74064;SDS011;62421;51.412;5.432;2022-12-10T10:11:01;81.88;;;23.40;;
74064;SDS011;62421;51.412;5.432;2022-12-10T10:13:34;67.85;;;21.63;;
74064;SDS011;62421;51.412;5.432;2022-12-10T10:16:17;72.60;;;21.80;;
74064;SDS011;62421;51.412;5.432;2022-12-10T10:18:49;73.53;;;20.58;;
74064;SDS011;62421;51.412;5.432;2022-12-10T10:21:24;78.10;;;20.23;;
74064;SDS011;62421;51.412;5.432;2022-12-10T10:23:52;73.72;;;20.55;;
74064;SDS011;62421;51.412;5.432;2022-12-10T10:26:17;75.87;;;22.47;;
74064;SDS011;62421;51.412;5.432;2022-12-10T10:28:43;78.47;;;24.10;;
74064;SDS011;62421;51.412;5.432;2022-12-10T10:31:29;82.15;;;21.95;;
74064;SDS011;62421;51.412;5.432;2022-12-10T10:34:00;69.68;;;21.67;;
74064;SDS011;62421;51.412;5.432;2022-12-10T10:36:28;80.15;;;22.45;;
74064;SDS011;62421;51.412;5.432;2022-12-10T10:38:56;70.43;;;21.67;;
74064;SDS011;62421;51.412;5.432;2022-12-10T10:41:23;70.25;;;22.27;;
74064;SDS011;62421;51.412;5.432;2022-12-10T10:43:51;75.73;;;22.07;;
74064;SDS011;62421;51.412;5.432;2022-12-10T10:46:24;75.55;;;21.73;;
74064;SDS011;62421;51.412;5.432;2022-12-10T10:48:50;75.70;;;22.95;;
74064;SDS011;62421;51.412;5.432;2022-12-10T10:51:21;77.73;;;23.13;;
74064;SDS011;62421;51.412;5.432;2022-12-10T10:53:50;78.80;;;22.38;;
74064;SDS011;62421;51.412;5.432;2022-12-10T10:56:27;79.95;;;22.08;;
74064;SDS011;62421;51.412;5.432;2022-12-10T10:59:02;79.93;;;21.70;;
74064;SDS011;62421;51.412;5.432;2022-12-10T11:01:50;73.93;;;23.40;;
74064;SDS011;62421;51.412;5.432;2022-12-10T11:04:18;77.68;;;22.75;;
74064;SDS011;62421;51.412;5.432;2022-12-10T11:07:12;67.97;;;21.45;;
74064;SDS011;62421;51.412;5.432;2022-12-10T11:09:44;47.80;;;15.38;;
74064;SDS011;62421;51.412;5.432;2022-12-10T11:12:23;56.35;;;16.98;;
74064;SDS011;62421;51.412;5.432;2022-12-10T11:14:54;71.10;;;19.63;;
74064;SDS011;62421;51.412;5.432;2022-12-10T11:17:21;71.67;;;21.10;;
74064;SDS011;62421;51.412;5.432;2022-12-10T11:20:12;78.97;;;22.80;;
74064;SDS011;62421;51.412;5.432;2022-12-10T11:23:07;76.35;;;23.40;;
74064;SDS011;62421;51.412;5.432;2022-12-10T11:33:55;60.60;;;16.65;;
74064;SDS011;62421;51.412;5.432;2022-12-10T11:42:04;72.38;;;21.10;;
74064;SDS011;62421;51.412;5.432;2022-12-10T11:52:49;76.18;;;23.70;;
74064;SDS011;62421;51.412;5.432;2022-12-10T11:58:32;72.47;;;22.40;;
74064;SDS011;62421;51.412;5.432;2022-12-10T12:06:52;73.67;;;23.50;;
74064;SDS011;62421;51.412;5.432;2022-12-10T12:09:29;72.25;;;22.80;;
74064;SDS011;62421;51.412;5.432;2022-12-10T12:17:57;74.93;;;24.17;;
74064;SDS011;62421;51.412;5.432;2022-12-10T12:20:29;72.65;;;22.60;;
74064;SDS011;62421;51.412;5.432;2022-12-10T12:25:56;80.18;;;23.10;;
74064;SDS011;62421;51.412;5.432;2022-12-10T12:28:26;71.15;;;21.17;;
74064;SDS011;62421;51.412;5.432;2022-12-10T12:31:05;75.05;;;21.45;;
74064;SDS011;62421;51.412;5.432;2022-12-10T12:33:39;75.88;;;21.02;;
74064;SDS011;62421;51.412;5.432;2022-12-10T12:36:12;89.17;;;22.03;;
74064;SDS011;62421;51.412;5.432;2022-12-10T12:41:40;81.13;;;22.63;;
74064;SDS011;62421;51.412;5.432;2022-12-10T12:46:55;77.80;;;21.97;;
74064;SDS011;62421;51.412;5.432;2022-12-10T12:49:41;66.47;;;20.98;;
74064;SDS011;62421;51.412;5.432;2022-12-10T12:55:00;71.82;;;20.45;;
74064;SDS011;62421;51.412;5.432;2022-12-10T12:57:37;67.78;;;18.90;;
74064;SDS011;62421;51.412;5.432;2022-12-10T13:00:15;65.15;;;20.10;;
74064;SDS011;62421;51.412;5.432;2022-12-10T13:05:47;66.83;;;20.77;;
74064;SDS011;62421;51.412;5.432;2022-12-10T13:10:56;67.67;;;20.43;;
74064;SDS011;62421;51.412;5.432;2022-12-10T13:15:49;65.70;;;21.00;;
74064;SDS011;62421;51.412;5.432;2022-12-10T13:23:48;74.40;;;23.00;;
74064;SDS011;62421;51.412;5.432;2022-12-10T13:26:23;77.32;;;21.52;;
74064;SDS011;62421;51.412;5.432;2022-12-10T13:28:54;70.00;;;20.15;;
74064;SDS011;62421;51.412;5.432;2022-12-10T13:36:27;69.15;;;21.95;;
74064;SDS011;62421;51.412;5.432;2022-12-10T13:49:57;75.80;;;19.88;;
74064;SDS011;62421;51.412;5.432;2022-12-10T14:00:53;75.40;;;21.60;;
74064;SDS011;62421;51.412;5.432;2022-12-10T14:03:51;67.72;;;18.95;;
74064;SDS011;62421;51.412;5.432;2022-12-10T14:06:39;70.93;;;20.48;;
74064;SDS011;62421;51.412;5.432;2022-12-10T14:09:10;78.78;;;21.20;;
74064;SDS011;62421;51.412;5.432;2022-12-10T14:11:48;68.00;;;19.07;;
74064;SDS011;62421;51.412;5.432;2022-12-10T14:14:33;66.88;;;20.35;;
74064;SDS011;62421;51.412;5.432;2022-12-10T14:17:04;77.15;;;22.50;;
74064;SDS011;62421;51.412;5.432;2022-12-10T14:19:50;73.18;;;22.58;;
74064;SDS011;62421;51.412;5.432;2022-12-10T14:22:43;80.90;;;22.00;;
74064;SDS011;62421;51.412;5.432;2022-12-10T14:25:11;77.40;;;20.33;;
74064;SDS011;62421;51.412;5.432;2022-12-10T14:27:39;85.18;;;22.02;;
74064;SDS011;62421;51.412;5.432;2022-12-10T14:30:06;68.20;;;19.67;;
74064;SDS011;62421;51.412;5.432;2022-12-10T14:32:41;76.15;;;21.48;;
74064;SDS011;62421;51.412;5.432;2022-12-10T14:35:10;71.85;;;20.83;;
74064;SDS011;62421;51.412;5.432;2022-12-10T14:37:39;66.15;;;19.77;;
74064;SDS011;62421;51.412;5.432;2022-12-10T14:40:08;65.88;;;19.95;;
74064;SDS011;62421;51.412;5.432;2022-12-10T14:42:38;61.30;;;18.95;;
74064;SDS011;62421;51.412;5.432;2022-12-10T14:45:04;63.87;;;19.73;;
74064;SDS011;62421;51.412;5.432;2022-12-10T14:47:38;72.15;;;21.40;;
74064;SDS011;62421;51.412;5.432;2022-12-10T14:50:05;75.07;;;21.15;;
74064;SDS011;62421;51.412;5.432;2022-12-10T14:52:40;61.83;;;18.70;;
74064;SDS011;62421;51.412;5.432;2022-12-10T14:55:14;65.07;;;18.10;;
74064;SDS011;62421;51.412;5.432;2022-12-10T14:57:59;68.53;;;19.63;;
74064;SDS011;62421;51.412;5.432;2022-12-10T15:00:28;61.05;;;18.77;;
74064;SDS011;62421;51.412;5.432;2022-12-10T15:02:56;60.60;;;18.30;;
74064;SDS011;62421;51.412;5.432;2022-12-10T15:05:27;61.05;;;18.30;;
74064;SDS011;62421;51.412;5.432;2022-12-10T15:07:56;67.20;;;20.50;;
74064;SDS011;62421;51.412;5.432;2022-12-10T15:10:31;67.35;;;19.30;;
74064;SDS011;62421;51.412;5.432;2022-12-10T15:13:01;62.30;;;18.70;;
74064;SDS011;62421;51.412;5.432;2022-12-10T15:15:29;64.43;;;18.90;;
74064;SDS011;62421;51.412;5.432;2022-12-10T15:20:46;71.40;;;18.90;;
74064;SDS011;62421;51.412;5.432;2022-12-10T15:28:43;68.57;;;18.85;;
74064;SDS011;62421;51.412;5.432;2022-12-10T15:33:37;67.50;;;18.80;;
74064;SDS011;62421;51.412;5.432;2022-12-10T15:36:11;70.65;;;18.65;;
74064;SDS011;62421;51.412;5.432;2022-12-10T15:44:18;63.67;;;18.92;;
74064;SDS011;62421;51.412;5.432;2022-12-10T15:47:00;63.07;;;19.03;;
74064;SDS011;62421;51.412;5.432;2022-12-10T15:49:43;63.25;;;18.70;;
74064;SDS011;62421;51.412;5.432;2022-12-10T15:52:16;73.00;;;18.45;;
74064;SDS011;62421;51.412;5.432;2022-12-10T15:54:44;63.45;;;17.92;;
74064;SDS011;62421;51.412;5.432;2022-12-10T15:57:15;63.45;;;19.25;;
74064;SDS011;62421;51.412;5.432;2022-12-10T15:59:49;59.67;;;17.08;;
74064;SDS011;62421;51.412;5.432;2022-12-10T16:07:48;55.80;;;17.35;;
74064;SDS011;62421;51.412;5.432;2022-12-10T16:10:16;64.65;;;17.88;;
74064;SDS011;62421;51.412;5.432;2022-12-10T16:12:48;64.35;;;18.60;;
74064;SDS011;62421;51.412;5.432;2022-12-10T16:15:35;68.35;;;18.85;;
74064;SDS011;62421;51.412;5.432;2022-12-10T16:18:08;62.42;;;18.05;;
74064;SDS011;62421;51.412;5.432;2022-12-10T16:20:35;59.78;;;17.10;;
74064;SDS011;62421;51.412;5.432;2022-12-10T16:23:00;59.50;;;16.33;;
74064;SDS011;62421;51.412;5.432;2022-12-10T16:25:27;71.53;;;18.07;;
74064;SDS011;62421;51.412;5.432;2022-12-10T16:27:54;61.67;;;17.17;;
74064;SDS011;62421;51.412;5.432;2022-12-10T16:32:47;60.90;;;16.50;;
74064;SDS011;62421;51.412;5.432;2022-12-10T16:35:13;57.47;;;16.60;;
74064;SDS011;62421;51.412;5.432;2022-12-10T16:37:43;60.90;;;18.63;;
74064;SDS011;62421;51.412;5.432;2022-12-10T16:40:10;61.47;;;16.75;;
74064;SDS011;62421;51.412;5.432;2022-12-10T16:42:37;49.97;;;15.82;;
74064;SDS011;62421;51.412;5.432;2022-12-10T16:45:08;63.30;;;17.20;;
74064;SDS011;62421;51.412;5.432;2022-12-10T16:47:44;66.13;;;19.75;;
74064;SDS011;62421;51.412;5.432;2022-12-10T16:50:10;66.13;;;17.93;;
74064;SDS011;62421;51.412;5.432;2022-12-10T16:52:36;56.05;;;17.27;;
74064;SDS011;62421;51.412;5.432;2022-12-10T16:55:02;56.00;;;16.33;;
74064;SDS011;62421;51.412;5.432;2022-12-10T16:57:28;63.40;;;16.98;;
74064;SDS011;62421;51.412;5.432;2022-12-10T16:59:53;61.70;;;17.17;;
74064;SDS011;62421;51.412;5.432;2022-12-10T17:02:19;58.83;;;16.33;;
74064;SDS011;62421;51.412;5.432;2022-12-10T17:04:45;68.72;;;17.63;;